Time;durP1;ratioP1;P1;durP2;ratioP2;P2;SDS_P1;SDS_P2;PMS_P1;PMS_P2;Temp;Humidity;BMP_temperature;BMP_pressure;BME280_temperature;BME280_humidity;BME280_pressure;Samples;Min_cycle;Max_cycle;Signal;HPM_P1;HPM_P2
2022/12/06 00:00:55;;;;;;;31.60;28.80;;;5.70;99.90;;;;;;4989159;28;20941;-75
2022/12/06 00:03:22;;;;;;;31.70;29.17;;;5.70;99.90;;;;;;4989526;28;20497;-76
2022/12/06 00:05:49;;;;;;;33.87;30.67;;;5.70;99.90;;;;;;4990093;28;20553;-76
2022/12/06 00:08:16;;;;;;;34.97;31.73;;;5.70;99.90;;;;;;4989742;28;20461;-75
2022/12/06 00:10:44;;;;;;;34.97;31.53;;;5.70;99.90;;;;;;4989936;28;20455;-76
2022/12/06 00:13:11;;;;;;;33.70;30.53;;;5.70;99.90;;;;;;4989559;28;20574;-75
2022/12/06 00:15:38;;;;;;;32.17;29.43;;;5.70;99.90;;;;;;4989485;28;20461;-75
2022/12/06 00:18:05;;;;;;;30.60;27.83;;;5.70;99.90;;;;;;4989944;28;21017;-75
2022/12/06 00:20:31;;;;;;;33.13;30.20;;;5.80;99.90;;;;;;4989876;28;20586;-76
2022/12/06 00:22:58;;;;;;;31.60;28.80;;;5.80;99.90;;;;;;4990001;28;20455;-76
2022/12/06 00:25:25;;;;;;;33.07;29.97;;;5.80;99.90;;;;;;4990067;28;20451;-74
2022/12/06 00:27:53;;;;;;;32.13;29.20;;;5.80;99.90;;;;;;4990148;28;21407;-76
2022/12/06 00:30:20;;;;;;;32.17;29.17;;;5.80;99.90;;;;;;4990291;28;20454;-74
2022/12/06 00:32:47;;;;;;;32.43;29.73;;;5.80;99.90;;;;;;4989741;28;20606;-75
2022/12/06 00:35:14;;;;;;;30.47;27.63;;;5.80;99.90;;;;;;4989946;28;20538;-74
2022/12/06 00:37:41;;;;;;;31.40;28.77;;;5.80;99.90;;;;;;4989864;28;20930;-75
2022/12/06 00:40:09;;;;;;;29.93;27.30;;;5.70;99.90;;;;;;4989805;28;20538;-76
2022/12/06 00:42:35;;;;;;;31.87;29.27;;;5.80;99.90;;;;;;4990047;28;20542;-76
2022/12/06 00:45:04;;;;;;;28.07;25.80;;;5.80;99.90;;;;;;4989747;28;20454;-76
2022/12/06 00:47:31;;;;;;;32.10;29.10;;;5.80;99.90;;;;;;4989990;28;20454;-75
2022/12/06 00:49:58;;;;;;;29.57;26.97;;;5.70;99.90;;;;;;4989642;28;20533;-75
2022/12/06 00:52:25;;;;;;;29.70;27.23;;;5.70;99.90;;;;;;4989739;28;21026;-75
2022/12/06 00:54:51;;;;;;;29.13;26.70;;;5.60;99.90;;;;;;4989786;28;20454;-76
2022/12/06 00:57:18;;;;;;;30.63;28.10;;;5.60;99.90;;;;;;4989731;28;20457;-76
2022/12/06 00:59:45;;;;;;;29.77;27.03;;;5.60;99.90;;;;;;4989583;28;20451;-75
2022/12/06 01:02:13;;;;;;;29.30;26.60;;;5.60;99.90;;;;;;4989566;28;20464;-74
2022/12/06 01:04:40;;;;;;;29.07;26.47;;;5.40;99.90;;;;;;4989446;28;20451;-75
2022/12/06 01:07:07;;;;;;;28.73;26.50;;;5.30;99.90;;;;;;4989625;28;20517;-75
2022/12/06 01:09:33;;;;;;;28.20;25.90;;;5.20;99.90;;;;;;4989675;28;20454;-75
2022/12/06 01:12:00;;;;;;;28.03;25.30;;;5.10;99.90;;;;;;4989463;28;20517;-75
2022/12/06 01:14:27;;;;;;;29.23;26.63;;;5.00;99.90;;;;;;4989486;28;20453;-73
2022/12/06 01:16:54;;;;;;;30.53;27.73;;;5.00;99.90;;;;;;4992492;28;20469;-73
2022/12/06 01:19:22;;;;;;;29.93;27.17;;;4.90;99.90;;;;;;4993001;28;20450;-73
2022/12/06 01:21:49;;;;;;;29.93;27.20;;;4.90;99.90;;;;;;4993186;28;20455;-75
2022/12/06 01:24:15;;;;;;;27.90;25.33;;;4.90;99.90;;;;;;4993054;28;20454;-75
2022/12/06 01:26:42;;;;;;;28.33;25.97;;;4.90;99.90;;;;;;4992726;28;20481;-74
2022/12/06 01:29:10;;;;;;;29.87;27.23;;;4.90;99.90;;;;;;4992578;28;20899;-76
2022/12/06 01:31:37;;;;;;;28.40;26.07;;;5.00;99.90;;;;;;4992692;28;20961;-76
2022/12/06 01:34:03;;;;;;;28.50;26.17;;;5.00;99.90;;;;;;4992529;28;20463;-76
2022/12/06 01:36:32;;;;;;;28.30;25.77;;;5.00;99.90;;;;;;4992844;28;20815;-75
2022/12/06 01:38:59;;;;;;;29.87;27.13;;;4.90;99.90;;;;;;4993180;28;20451;-76
2022/12/06 01:41:28;;;;;;;28.87;26.47;;;5.00;99.90;;;;;;4992799;28;20538;-77
2022/12/06 01:43:55;;;;;;;29.53;26.77;;;5.00;99.90;;;;;;4992513;28;20466;-75
2022/12/06 01:46:30;;;;;;;29.57;26.93;;;5.00;99.90;;;;;;4992168;28;20455;-75
2022/12/06 01:49:05;;;;;;;31.20;28.50;;;5.00;99.90;;;;;;4991987;28;20452;-77
2022/12/06 01:51:34;;;;;;;28.23;26.03;;;5.00;99.90;;;;;;4992048;28;20473;-76
2022/12/06 01:54:02;;;;;;;27.83;25.60;;;5.00;99.90;;;;;;4992243;28;20454;-74
2022/12/06 01:56:30;;;;;;;29.40;27.00;;;5.00;99.90;;;;;;4992209;28;20446;-75
2022/12/06 01:58:58;;;;;;;29.67;27.13;;;5.00;99.90;;;;;;4992185;28;20446;-75
2022/12/06 02:01:26;;;;;;;30.00;27.40;;;5.00;99.90;;;;;;4992115;28;20545;-76
2022/12/06 02:03:55;;;;;;;28.77;26.10;;;5.00;99.90;;;;;;4991903;28;20945;-76
2022/12/06 02:06:22;;;;;;;28.83;26.43;;;5.00;99.90;;;;;;4991780;28;20450;-74
2022/12/06 02:08:53;;;;;;;29.90;27.40;;;5.10;99.90;;;;;;4991769;28;20460;-75
2022/12/06 02:11:19;;;;;;;30.80;28.07;;;5.00;99.90;;;;;;4991681;28;20810;-76
2022/12/06 02:13:46;;;;;;;28.30;26.20;;;5.10;99.90;;;;;;4991686;28;20612;-76
2022/12/06 02:16:28;;;;;;;28.57;26.33;;;5.10;99.90;;;;;;4991759;28;20446;-75
2022/12/06 02:19:00;;;;;;;30.30;27.70;;;5.10;99.90;;;;;;4991456;28;20929;-75
2022/12/06 02:21:36;;;;;;;30.13;27.50;;;5.10;99.90;;;;;;4991674;28;20453;-75
2022/12/06 02:24:40;;;;;;;27.80;25.60;;;5.10;99.90;;;;;;4991673;28;20458;-75
2022/12/06 02:27:27;;;;;;;29.00;26.40;;;5.10;99.90;;;;;;4965763;28;20462;-76
2022/12/06 02:30:07;;;;;;;28.47;26.07;;;5.10;99.90;;;;;;4990848;28;20493;-76
2022/12/06 02:32:42;;;;;;;28.17;25.70;;;5.10;99.90;;;;;;4990841;28;20582;-76
2022/12/06 02:35:15;;;;;;;29.17;26.50;;;5.10;99.90;;;;;;4991149;28;20460;-74
2022/12/06 02:37:47;;;;;;;27.43;25.30;;;5.10;99.90;;;;;;4991172;28;20451;-76
2022/12/06 02:40:19;;;;;;;28.33;26.13;;;5.10;99.90;;;;;;4991217;28;20538;-76
2022/12/06 02:42:51;;;;;;;28.50;26.20;;;5.10;99.90;;;;;;4990887;28;20446;-76
2022/12/06 02:45:21;;;;;;;27.93;25.53;;;5.20;99.90;;;;;;4991165;28;20447;-74
2022/12/06 02:47:51;;;;;;;27.47;24.97;;;5.10;99.90;;;;;;4990663;28;21040;-75
2022/12/06 02:50:20;;;;;;;26.27;24.13;;;5.10;99.90;;;;;;4990952;28;20458;-75
2022/12/06 02:52:51;;;;;;;25.13;23.13;;;5.10;99.90;;;;;;4990707;28;20525;-75
2022/12/06 02:55:18;;;;;;;25.83;24.00;;;5.10;99.90;;;;;;4990784;28;20447;-75
2022/12/06 02:57:49;;;;;;;27.03;25.00;;;5.10;99.90;;;;;;4990714;28;20451;-75
2022/12/06 03:00:35;;;;;;;27.33;25.17;;;5.20;99.90;;;;;;4990601;28;20550;-76
2022/12/06 03:03:31;;;;;;;25.63;23.63;;;5.20;99.90;;;;;;4990493;28;20453;-75
2022/12/06 03:06:15;;;;;;;26.93;24.73;;;5.20;99.90;;;;;;4990871;28;20465;-75
2022/12/06 03:08:51;;;;;;;27.07;24.80;;;5.20;99.90;;;;;;4990559;28;20453;-74
2022/12/06 03:11:18;;;;;;;28.40;26.10;;;5.20;99.90;;;;;;4990645;28;21032;-74
2022/12/06 03:13:54;;;;;;;28.70;26.30;;;5.20;99.90;;;;;;4990759;28;20501;-74
2022/12/06 03:16:26;;;;;;;27.70;25.50;;;5.30;99.90;;;;;;4990141;28;20504;-75
2022/12/06 03:19:02;;;;;;;26.93;25.07;;;5.40;99.90;;;;;;4990137;28;20450;-75
2022/12/06 03:21:36;;;;;;;28.30;25.93;;;5.40;99.90;;;;;;4990237;28;20446;-76
2022/12/06 03:24:07;;;;;;;26.23;24.27;;;5.40;99.90;;;;;;4990356;28;20443;-76
2022/12/06 03:26:36;;;;;;;28.03;25.77;;;5.50;99.90;;;;;;4990478;28;21295;-76
2022/12/06 03:29:05;;;;;;;28.17;26.23;;;5.40;99.90;;;;;;4990315;28;20475;-76
2022/12/06 03:31:34;;;;;;;27.23;25.13;;;5.40;99.90;;;;;;4989957;28;20451;-76
2022/12/06 03:34:06;;;;;;;27.33;25.17;;;5.40;99.90;;;;;;4990045;28;20483;-75
2022/12/06 03:36:34;;;;;;;25.87;24.03;;;5.40;99.90;;;;;;4990340;28;20791;-75
2022/12/06 03:39:04;;;;;;;25.67;23.67;;;5.50;99.90;;;;;;4989349;28;20825;-75
2022/12/06 03:41:36;;;;;;;27.23;25.20;;;5.40;99.90;;;;;;4990076;28;20462;-74
2022/12/06 03:44:03;;;;;;;26.17;24.07;;;5.50;99.90;;;;;;4990249;28;20831;-75
2022/12/06 03:46:33;;;;;;;26.43;24.43;;;5.40;99.90;;;;;;4989811;28;20461;-76
2022/12/06 03:49:04;;;;;;;26.60;24.60;;;5.40;99.90;;;;;;4989864;28;20454;-75
2022/12/06 03:51:33;;;;;;;26.90;25.00;;;5.50;99.90;;;;;;4989804;28;20546;-74
2022/12/06 03:54:01;;;;;;;29.07;26.87;;;5.40;99.90;;;;;;4989549;28;20497;-76
2022/12/06 03:56:29;;;;;;;25.03;23.33;;;5.50;99.90;;;;;;4989867;28;20458;-75
2022/12/06 03:58:55;;;;;;;26.53;24.63;;;5.50;99.90;;;;;;4989846;28;20447;-74
2022/12/06 04:01:22;;;;;;;26.43;24.43;;;5.50;99.90;;;;;;4989956;28;20472;-74
2022/12/06 04:03:49;;;;;;;24.93;23.03;;;5.40;99.90;;;;;;4990170;28;20813;-74
2022/12/06 04:06:17;;;;;;;24.73;23.03;;;5.30;99.90;;;;;;4989777;28;20454;-75
2022/12/06 04:08:44;;;;;;;26.73;24.53;;;5.40;99.90;;;;;;4989740;28;20466;-75
2022/12/06 04:11:10;;;;;;;25.90;24.00;;;5.40;99.90;;;;;;4988898;28;20465;-74
2022/12/06 04:13:37;;;;;;;28.23;26.10;;;5.40;99.90;;;;;;4988570;28;20486;-76
2022/12/06 04:18:09;;;;;;;25.53;23.77;;;5.40;99.90;;;;;;4989280;28;20447;-76
2022/12/06 04:18:51;;;;;;;26.43;24.50;;;5.50;99.90;;;;;;4989405;28;20557;-75
2022/12/06 04:24:05;;;;;;;26.67;24.90;;;5.60;99.90;;;;;;4988865;28;20649;-75
2022/12/06 04:26:31;;;;;;;25.33;23.63;;;5.70;99.90;;;;;;4989566;28;20987;-75
2022/12/06 04:39:56;;;;;;;25.00;23.30;;;5.50;99.90;;;;;;4989422;28;20435;-75
2022/12/06 04:45:08;;;;;;;24.70;22.73;;;5.60;99.90;;;;;;4989056;28;20574;-76
2022/12/06 04:47:35;;;;;;;25.77;23.47;;;5.50;99.90;;;;;;4987876;28;20453;-75
2022/12/06 04:50:01;;;;;;;25.20;23.50;;;5.40;99.90;;;;;;4989283;28;20461;-75
2022/12/06 04:52:29;;;;;;;23.80;22.10;;;5.30;99.90;;;;;;4992808;28;20461;-75
2022/12/06 04:54:56;;;;;;;25.83;24.17;;;5.40;99.90;;;;;;4993163;28;20459;-75
2022/12/06 04:57:23;;;;;;;27.97;25.57;;;5.40;99.90;;;;;;4993439;28;20447;-74
2022/12/06 04:59:50;;;;;;;25.10;23.40;;;5.30;99.90;;;;;;4993630;28;20837;-75
2022/12/06 05:02:17;;;;;;;25.17;23.37;;;5.30;99.90;;;;;;4991286;28;20535;-75
2022/12/06 05:04:43;;;;;;;24.10;22.50;;;5.20;99.90;;;;;;4991271;28;20459;-75
2022/12/06 05:07:11;;;;;;;25.87;23.57;;;5.30;99.90;;;;;;4992967;28;20451;-78
2022/12/06 05:09:39;;;;;;;23.00;21.40;;;5.30;99.90;;;;;;4987026;28;20455;-82
2022/12/06 05:12:07;;;;;;;23.90;22.40;;;5.30;99.90;;;;;;4993039;28;20553;-76
2022/12/06 05:14:34;;;;;;;26.40;24.33;;;5.30;99.90;;;;;;4993381;28;21023;-77
2022/12/06 05:17:00;;;;;;;24.60;22.60;;;5.30;99.90;;;;;;4993081;28;20455;-82
2022/12/06 05:19:27;;;;;;;25.50;23.50;;;5.30;99.90;;;;;;4993193;28;20454;-79
2022/12/06 05:21:54;;;;;;;25.17;23.13;;;5.30;99.90;;;;;;4992824;28;20450;-80
2022/12/06 05:24:21;;;;;;;25.87;23.97;;;5.30;99.90;;;;;;4991035;28;20518;-81
2022/12/06 05:26:49;;;;;;;25.33;23.53;;;5.40;99.90;;;;;;4991996;28;20478;-80
2022/12/06 05:29:16;;;;;;;25.50;23.63;;;5.40;99.90;;;;;;4992578;28;20482;-79
2022/12/06 05:31:43;;;;;;;23.53;21.33;;;5.50;99.90;;;;;;4990385;28;20839;-79
2022/12/06 05:34:10;;;;;;;24.17;22.43;;;5.60;99.90;;;;;;4992080;28;20486;-80
2022/12/06 05:36:36;;;;;;;24.93;22.77;;;5.60;99.90;;;;;;4992564;28;20493;-77
2022/12/06 05:39:04;;;;;;;21.47;19.97;;;;;;;;;;4992514;28;20549;-79
2022/12/06 05:41:52;;;;;;;23.63;21.83;;;5.30;99.90;;;;;;4992772;28;21104;-78
2022/12/06 05:44:20;;;;;;;22.90;21.47;;;5.50;99.90;;;;;;4986557;28;20463;-80
2022/12/06 05:46:47;;;;;;;21.10;19.60;;;5.60;99.90;;;;;;4991898;28;20796;-79
2022/12/06 05:49:14;;;;;;;21.73;19.97;;;;;;;;;;4988159;28;20447;-73
2022/12/06 05:51:41;;;;;;;23.03;21.23;;;;;;;;;;4992142;28;20757;-75
2022/12/06 05:54:07;;;;;;;21.43;19.23;;;5.50;99.90;;;;;;4992167;28;20827;-73
2022/12/06 05:56:34;;;;;;;21.63;19.80;;;5.50;99.90;;;;;;4992086;28;20465;-73
2022/12/06 05:59:02;;;;;;;21.43;19.90;;;5.50;99.90;;;;;;4992128;28;20790;-74
2022/12/06 06:01:30;;;;;;;22.77;20.40;;;5.50;99.90;;;;;;4991291;28;20486;-72
2022/12/06 06:03:56;;;;;;;21.60;20.10;;;5.50;99.90;;;;;;4991672;28;20450;-83
2022/12/06 06:06:27;;;;;;;26.07;23.70;;;5.50;99.90;;;;;;4990254;28;20819;-75
2022/12/06 06:08:54;;;;;;;23.17;21.27;;;5.50;99.90;;;;;;4987702;28;20450;-76
2022/12/06 06:11:21;;;;;;;22.47;20.67;;;5.80;99.90;;;;;;4991005;28;20469;-74
2022/12/06 06:13:48;;;;;;;23.00;21.30;;;5.70;99.90;;;;;;4990960;28;21027;-75
2022/12/06 06:16:15;;;;;;;22.63;20.80;;;5.80;99.90;;;;;;4989009;28;20455;-75
2022/12/06 06:18:43;;;;;;;22.90;21.30;;;5.80;99.90;;;;;;4991211;28;20446;-74
2022/12/06 06:21:09;;;;;;;22.10;20.60;;;6.00;99.90;;;;;;4990852;28;20451;-74
2022/12/06 06:23:37;;;;;;;20.93;19.43;;;5.90;99.90;;;;;;4991011;28;20442;-74
2022/12/06 06:26:07;;;;;;;20.90;19.47;;;5.80;99.90;;;;;;4975087;28;20451;-75
2022/12/06 06:28:34;;;;;;;21.03;19.73;;;5.90;99.90;;;;;;4990866;28;20482;-75
2022/12/06 06:31:02;;;;;;;20.43;18.83;;;5.80;99.90;;;;;;4990951;28;20451;-75
2022/12/06 06:33:29;;;;;;;21.00;18.97;;;6.60;99.90;;;;;;4990606;28;20510;-75
2022/12/06 06:35:57;;;;;;;19.67;18.30;;;6.00;99.90;;;;;;4990846;28;20450;-76
2022/12/06 06:38:24;;;;;;;19.10;17.93;;;6.00;99.90;;;;;;4990622;28;20455;-74
2022/12/06 06:40:50;;;;;;;19.20;17.80;;;5.90;99.90;;;;;;4990610;28;20451;-75
2022/12/06 06:43:20;;;;;;;20.70;19.30;;;6.00;99.90;;;;;;4990901;28;20449;-74
2022/12/06 06:45:52;;;;;;;19.43;18.00;;;6.00;99.90;;;;;;4990760;28;20902;-74
2022/12/06 06:48:19;;;;;;;20.67;18.83;;;6.10;99.90;;;;;;4989724;28;20447;-74
2022/12/06 06:50:46;;;;;;;20.03;18.63;;;6.00;99.90;;;;;;4990560;28;20462;-74
2022/12/06 06:53:14;;;;;;;22.37;20.37;;;5.90;99.90;;;;;;4990668;28;21008;-73
2022/12/06 06:55:43;;;;;;;22.30;20.67;;;5.80;99.90;;;;;;4990895;28;20819;-75
2022/12/06 06:58:09;;;;;;;24.00;21.73;;;5.80;99.90;;;;;;4990769;28;20785;-73
2022/12/06 07:00:36;;;;;;;21.10;19.60;;;5.80;99.90;;;;;;4990517;28;20446;-73
2022/12/06 07:03:03;;;;;;;21.20;19.80;;;5.80;99.90;;;;;;4990672;28;20451;-75
2022/12/06 07:05:30;;;;;;;20.67;19.30;;;5.90;99.90;;;;;;4990413;28;20462;-74
2022/12/06 07:07:57;;;;;;;21.73;19.63;;;6.00;99.90;;;;;;4990514;28;21122;-74
2022/12/06 07:10:26;;;;;;;21.90;20.43;;;6.00;99.90;;;;;;4990464;28;20454;-74
2022/12/06 07:12:53;;;;;;;23.30;20.97;;;5.90;99.90;;;;;;4989596;28;20494;-75
2022/12/06 07:15:20;;;;;;;22.90;21.07;;;5.90;99.90;;;;;;4990654;28;20565;-73
2022/12/06 07:17:47;;;;;;;21.53;19.93;;;5.90;99.90;;;;;;4990443;28;20524;-75
2022/12/06 07:20:14;;;;;;;21.30;19.90;;;5.80;99.90;;;;;;4990460;28;20454;-73
2022/12/06 07:22:40;;;;;;;21.57;20.03;;;5.80;99.90;;;;;;4990513;28;20447;-75
2022/12/06 07:25:08;;;;;;;22.63;20.67;;;5.70;99.90;;;;;;4990382;28;20807;-75
2022/12/06 07:27:36;;;;;;;21.90;20.30;;;5.70;99.90;;;;;;4990031;28;20459;-75
2022/12/06 07:30:04;;;;;;;22.63;21.10;;;5.70;99.90;;;;;;4990511;28;20513;-73
2022/12/06 07:32:34;;;;;;;19.87;18.67;;;5.70;99.90;;;;;;4990036;28;20454;-74
2022/12/06 07:35:01;;;;;;;21.40;20.00;;;5.70;99.90;;;;;;4989976;28;20495;-76
2022/12/06 07:37:27;;;;;;;20.80;19.50;;;5.70;99.90;;;;;;4989844;28;20451;-76
2022/12/06 07:39:54;;;;;;;21.70;19.87;;;5.80;99.90;;;;;;4990219;28;20474;-74
2022/12/06 07:45:08;;;;;;;20.27;19.07;;;5.80;99.90;;;;;;4990044;28;20422;-75
2022/12/06 07:47:37;;;;;;;21.67;20.17;;;5.90;99.90;;;;;;4989216;28;20457;-76
2022/12/06 07:50:06;;;;;;;20.50;19.00;;;5.90;99.90;;;;;;4989364;28;20450;-74
2022/12/06 07:52:34;;;;;;;20.57;19.27;;;5.90;99.90;;;;;;4990010;28;20443;-75
2022/12/06 07:55:01;;;;;;;22.70;20.90;;;5.80;99.90;;;;;;4990054;28;20486;-75
2022/12/06 07:57:28;;;;;;;23.83;21.83;;;5.90;99.90;;;;;;4990197;28;20477;-74
2022/12/06 07:59:55;;;;;;;22.87;21.17;;;6.00;99.90;;;;;;4989774;28;20451;-75
2022/12/06 08:02:25;;;;;;;20.37;18.63;;;6.00;99.90;;;;;;4989692;28;20476;-75
2022/12/06 08:04:52;;;;;;;19.97;18.70;;;6.10;99.90;;;;;;4989825;28;21003;-74
2022/12/06 08:07:19;;;;;;;19.00;17.50;;;6.10;99.90;;;;;;4989912;28;20451;-74
2022/12/06 08:09:46;;;;;;;19.80;18.40;;;6.20;99.90;;;;;;4990025;28;20458;-73
2022/12/06 08:12:13;;;;;;;18.33;17.07;;;6.20;99.90;;;;;;4989708;28;20494;-75
2022/12/06 08:14:40;;;;;;;18.20;17.00;;;6.30;99.90;;;;;;4989744;28;20482;-75
2022/12/06 08:17:07;;;;;;;18.40;17.10;;;6.30;99.90;;;;;;4989761;28;20457;-74
2022/12/06 08:19:35;;;;;;;17.10;16.00;;;6.30;99.90;;;;;;4989889;28;20451;-75
2022/12/06 08:22:02;;;;;;;20.20;18.40;;;6.30;99.90;;;;;;4989959;28;20462;-74
2022/12/06 08:24:28;;;;;;;19.27;17.87;;;6.30;99.90;;;;;;4990918;28;20446;-74
2022/12/06 08:26:56;;;;;;;19.07;17.67;;;6.30;99.90;;;;;;4994297;28;20473;-76
2022/12/06 08:29:22;;;;;;;18.33;16.73;;;6.30;99.90;;;;;;4993915;28;20486;-74
2022/12/06 08:31:49;;;;;;;17.60;16.23;;;6.30;99.90;;;;;;4993935;28;20458;-74
2022/12/06 08:34:17;;;;;;;19.20;17.47;;;6.20;99.90;;;;;;4993535;28;20490;-74
2022/12/06 08:36:45;;;;;;;18.07;16.97;;;6.30;99.90;;;;;;4993375;28;20457;-73
2022/12/06 08:39:13;;;;;;;16.67;15.53;;;6.40;99.90;;;;;;4993089;28;20457;-73
2022/12/06 08:41:57;;;;;;;16.50;15.53;;;6.40;99.90;;;;;;4993444;28;20817;-74
2022/12/06 08:44:24;;;;;;;17.30;16.20;;;6.50;99.90;;;;;;4993254;28;20505;-74
2022/12/06 08:46:52;;;;;;;18.03;16.80;;;6.60;99.90;;;;;;4993347;28;20813;-75
2022/12/06 08:49:19;;;;;;;17.27;16.13;;;6.60;99.90;;;;;;4993318;28;20569;-74
2022/12/06 08:51:48;;;;;;;16.90;15.70;;;6.60;99.90;;;;;;4993125;28;20456;-74
2022/12/06 08:54:17;;;;;;;17.73;16.47;;;6.70;99.90;;;;;;4992919;28;20486;-74
2022/12/06 08:56:44;;;;;;;18.40;17.10;;;6.80;99.90;;;;;;4993143;28;20446;-74
2022/12/06 08:59:10;;;;;;;18.23;16.93;;;6.90;99.90;;;;;;4992697;28;20465;-75
2022/12/06 09:01:37;;;;;;;18.60;17.30;;;7.00;99.90;;;;;;4993044;28;20451;-73
2022/12/06 09:04:06;;;;;;;18.33;17.00;;;7.00;99.90;;;;;;4992691;28;20944;-75
2022/12/06 09:06:33;;;;;;;16.67;15.57;;;7.10;99.90;;;;;;4992648;28;20454;-75
2022/12/06 09:09:01;;;;;;;17.27;16.07;;;7.20;99.90;;;;;;4992628;28;20477;-76
2022/12/06 09:11:28;;;;;;;17.67;16.43;;;7.20;99.90;;;;;;4993017;28;20450;-75
2022/12/06 09:13:55;;;;;;;17.43;15.93;;;7.20;99.90;;;;;;4992886;28;20510;-75
2022/12/06 09:16:23;;;;;;;17.07;15.90;;;7.20;99.90;;;;;;4992935;28;20463;-75
2022/12/06 09:18:51;;;;;;;17.20;16.13;;;7.20;99.90;;;;;;4992613;28;20446;-76
2022/12/06 09:21:20;;;;;;;16.80;15.53;;;7.10;99.90;;;;;;4992709;28;20584;-76
2022/12/06 09:23:47;;;;;;;18.13;16.80;;;7.30;99.90;;;;;;4992590;28;20465;-75
2022/12/06 09:26:15;;;;;;;16.77;15.67;;;7.40;99.90;;;;;;4992632;28;20985;-75
2022/12/06 09:28:44;;;;;;;19.27;17.60;;;7.30;99.90;;;;;;4992187;28;20486;-75
2022/12/06 09:31:11;;;;;;;18.67;17.37;;;7.30;99.90;;;;;;4992374;28;20809;-76
2022/12/06 09:33:38;;;;;;;17.80;16.50;;;7.00;99.90;;;;;;4992203;28;20443;-76
2022/12/06 09:36:09;;;;;;;18.07;16.80;;;7.10;99.90;;;;;;4991203;28;20454;-75
2022/12/06 09:38:37;;;;;;;19.93;18.30;;;7.00;99.90;;;;;;4991986;28;20464;-75
2022/12/06 09:41:14;;;;;;;19.30;17.90;;;7.10;99.90;;;;;;4992142;28;20451;-76
2022/12/06 09:43:56;;;;;;;18.80;17.60;;;7.10;99.90;;;;;;4992301;28;20813;-76
2022/12/06 09:46:41;;;;;;;18.80;17.50;;;7.10;99.90;;;;;;4991584;28;20451;-76
2022/12/06 09:49:30;;;;;;;18.50;17.30;;;7.10;99.90;;;;;;4991830;28;20454;-76
2022/12/06 09:52:21;;;;;;;21.07;19.20;;;6.90;99.90;;;;;;4986226;28;20482;-75
2022/12/06 09:55:03;;;;;;;20.87;19.27;;;6.90;99.90;;;;;;4975217;28;20486;-75
2022/12/06 09:57:37;;;;;;;19.00;17.70;;;6.90;99.90;;;;;;4991809;28;20816;-75
2022/12/06 10:00:08;;;;;;;20.17;18.73;;;7.10;99.90;;;;;;4991979;28;20454;-75
2022/12/06 10:02:52;;;;;;;19.07;17.67;;;7.20;99.90;;;;;;4991545;28;20513;-75
2022/12/06 10:05:34;;;;;;;21.10;19.60;;;7.10;99.90;;;;;;4991786;28;20453;-73
2022/12/06 10:08:11;;;;;;;21.27;19.77;;;7.10;99.90;;;;;;4989776;28;20980;-74
2022/12/06 10:10:51;;;;;;;19.83;18.37;;;7.20;99.90;;;;;;4991849;28;20493;-74
2022/12/06 10:13:26;;;;;;;18.73;17.53;;;7.20;99.90;;;;;;4991665;28;20823;-74
2022/12/06 10:16:06;;;;;;;21.40;19.83;;;7.30;99.90;;;;;;4991858;28;20486;-74
2022/12/06 10:18:48;;;;;;;21.73;20.20;;;7.40;99.90;;;;;;4988259;28;20443;-75
2022/12/06 10:21:23;;;;;;;22.27;20.33;;;7.60;99.90;;;;;;4991559;28;20446;-75
2022/12/06 10:24:07;;;;;;;21.80;20.20;;;7.80;99.90;;;;;;4989864;28;20815;-75
2022/12/06 10:26:40;;;;;;;22.13;20.07;;;7.80;99.90;;;;;;4989321;28;20507;-76
2022/12/06 10:29:19;;;;;;;23.13;21.33;;;7.70;99.90;;;;;;4990619;28;20493;-75
2022/12/06 10:31:55;;;;;;;23.27;21.47;;;7.70;99.90;;;;;;4990835;28;20446;-75
2022/12/06 10:34:30;;;;;;;23.43;21.43;;;7.70;99.90;;;;;;4990978;28;20787;-75
2022/12/06 10:37:07;;;;;;;22.17;20.43;;;7.70;99.90;;;;;;4991018;28;20449;-76
2022/12/06 10:39:47;;;;;;;23.93;21.83;;;7.90;99.90;;;;;;4991166;28;20451;-76
2022/12/06 10:42:23;;;;;;;24.00;22.00;;;7.90;99.90;;;;;;4991146;28;20458;-75
2022/12/06 10:44:55;;;;;;;23.27;21.47;;;8.00;99.90;;;;;;4990794;28;20809;-74
2022/12/06 10:47:27;;;;;;;22.53;20.70;;;8.10;99.90;;;;;;4990722;28;20451;-74
2022/12/06 10:49:58;;;;;;;23.10;21.23;;;7.80;99.90;;;;;;4990078;28;20545;-75
2022/12/06 10:52:34;;;;;;;23.23;21.07;;;8.00;99.90;;;;;;4990318;28;20534;-74
2022/12/06 10:55:14;;;;;;;22.27;20.57;;;8.00;99.90;;;;;;4990876;28;21030;-75
2022/12/06 10:57:47;;;;;;;22.23;20.27;;;7.80;99.90;;;;;;4991121;28;21181;-74
2022/12/06 11:00:16;;;;;;;22.07;20.47;;;7.80;99.90;;;;;;4991033;28;20451;-75
2022/12/06 11:02:53;;;;;;;21.67;19.97;;;7.90;99.90;;;;;;4990469;28;20469;-75
2022/12/06 11:05:30;;;;;;;26.27;23.90;;;8.00;99.90;;;;;;4990689;28;20473;-76
2022/12/06 11:08:03;;;;;;;23.90;22.03;;;7.90;99.90;;;;;;4990520;28;20782;-75
2022/12/06 11:10:33;;;;;;;23.50;21.50;;;7.80;99.90;;;;;;4989152;28;20446;-75
2022/12/06 11:13:09;;;;;;;21.43;19.80;;;7.80;99.90;;;;;;4990272;28;20562;-75
2022/12/06 11:15:39;;;;;;;21.03;19.53;;;7.70;99.90;;;;;;4990352;28;20485;-75
2022/12/06 11:18:13;;;;;;;20.97;19.47;;;7.80;99.90;;;;;;4990444;28;20789;-75
2022/12/06 11:20:46;;;;;;;19.90;18.40;;;7.70;99.90;;;;;;4990477;28;20446;-75
2022/12/06 11:23:20;;;;;;;20.80;19.10;;;7.60;99.90;;;;;;4990240;28;20454;-75
2022/12/06 11:26:01;;;;;;;20.23;18.33;;;7.50;99.90;;;;;;4989854;28;20451;-76
2022/12/06 11:28:37;;;;;;;21.13;19.50;;;7.40;99.90;;;;;;4990290;28;20474;-74
2022/12/06 11:31:14;;;;;;;20.60;19.10;;;7.40;99.90;;;;;;4988754;28;20505;-76
2022/12/06 11:33:42;;;;;;;18.93;17.57;;;7.50;99.90;;;;;;4990694;28;20455;-74
2022/12/06 11:36:09;;;;;;;19.53;18.10;;;7.40;99.90;;;;;;4990747;28;20482;-75
2022/12/06 11:38:39;;;;;;;19.67;17.90;;;7.30;99.90;;;;;;4990598;28;20450;-74
2022/12/06 11:41:10;;;;;;;18.63;17.03;;;7.30;99.90;;;;;;4990681;28;20454;-75
2022/12/06 11:43:37;;;;;;;19.10;17.80;;;7.20;99.90;;;;;;4990331;28;20451;-74
2022/12/06 11:46:06;;;;;;;18.80;17.50;;;7.10;99.90;;;;;;4990758;28;20457;-75
2022/12/06 11:48:35;;;;;;;18.70;17.50;;;6.90;99.90;;;;;;4990768;28;20442;-76
2022/12/06 11:51:03;;;;;;;17.97;16.60;;;7.00;99.90;;;;;;4991071;28;20542;-75
2022/12/06 11:53:34;;;;;;;19.63;18.23;;;6.90;99.90;;;;;;4990778;28;20458;-74
2022/12/06 11:56:06;;;;;;;19.33;17.53;;;6.90;99.90;;;;;;4991161;28;20493;-74
2022/12/06 11:58:39;;;;;;;18.83;17.63;;;6.90;99.90;;;;;;4990745;28;20450;-75
2022/12/06 12:01:09;;;;;;;17.43;16.23;;;6.80;99.90;;;;;;4990546;28;20447;-75
2022/12/06 12:03:38;;;;;;;18.17;16.97;;;6.80;99.90;;;;;;4990693;28;20447;-75
2022/12/06 12:06:25;;;;;;;20.20;18.50;;;6.90;99.90;;;;;;4990632;28;20595;-76
2022/12/06 12:08:59;;;;;;;19.10;17.67;;;6.90;99.90;;;;;;4990631;28;20504;-74
2022/12/06 12:11:29;;;;;;;20.57;19.23;;;6.80;99.90;;;;;;4990568;28;20956;-74
2022/12/06 12:14:00;;;;;;;18.30;16.77;;;6.60;99.90;;;;;;4990247;28;20447;-75
2022/12/06 12:16:30;;;;;;;17.77;16.60;;;6.60;99.90;;;;;;4990221;28;20502;-75
2022/12/06 12:18:59;;;;;;;17.77;16.70;;;6.70;99.90;;;;;;4990428;28;20450;-74
2022/12/06 12:21:34;;;;;;;16.90;15.90;;;6.60;99.90;;;;;;4990408;28;20455;-75
2022/12/06 12:24:01;;;;;;;17.70;16.40;;;6.60;99.90;;;;;;4990369;28;20452;-75
2022/12/06 12:26:41;;;;;;;16.50;15.50;;;6.70;99.90;;;;;;4990438;28;20474;-75
2022/12/06 12:29:17;;;;;;;17.00;15.90;;;6.60;99.90;;;;;;4990454;28;20474;-75
2022/12/06 12:31:53;;;;;;;17.00;16.00;;;6.60;99.90;;;;;;4990442;28;20455;-75
2022/12/06 12:34:21;;;;;;;17.47;16.23;;;6.60;99.90;;;;;;4990394;28;20458;-74
2022/12/06 12:36:52;;;;;;;17.73;16.53;;;6.50;99.90;;;;;;4990361;28;20856;-75
2022/12/06 12:39:31;;;;;;;17.63;16.33;;;6.70;99.90;;;;;;4990267;28;20439;-75
2022/12/06 12:41:58;;;;;;;18.07;16.80;;;6.70;99.90;;;;;;4990468;28;20607;-75
2022/12/06 12:44:28;;;;;;;18.87;17.47;;;6.60;99.90;;;;;;4990137;28;20454;-75
2022/12/06 12:46:57;;;;;;;18.13;16.83;;;6.60;99.90;;;;;;4989896;28;20477;-74
2022/12/06 12:49:28;;;;;;;20.53;18.87;;;6.60;99.90;;;;;;4989966;28;20512;-74
2022/12/06 12:51:57;;;;;;;19.23;18.13;;;6.50;99.90;;;;;;4989851;28;20457;-74
2022/12/06 12:54:28;;;;;;;18.27;17.27;;;6.40;99.90;;;;;;4990125;28;20450;-74
2022/12/06 12:56:55;;;;;;;21.23;19.90;;;6.40;99.90;;;;;;4989820;28;20963;-74
2022/12/06 12:59:23;;;;;;;20.00;18.20;;;6.30;99.90;;;;;;4989508;28;20454;-75
2022/12/06 13:01:56;;;;;;;18.23;17.13;;;6.40;99.90;;;;;;4989837;28;20446;-74
2022/12/06 13:04:41;;;;;;;18.93;17.73;;;6.20;99.90;;;;;;4989810;28;20483;-75
2022/12/06 13:07:18;;;;;;;20.00;18.40;;;6.10;99.90;;;;;;4989861;28;20443;-75
2022/12/06 13:09:54;;;;;;;18.40;17.40;;;6.20;99.90;;;;;;4989990;28;20563;-75
2022/12/06 13:12:33;;;;;;;20.90;18.90;;;6.10;99.90;;;;;;4993307;28;20948;-75